Aérodrome :
LOGIN :

S'inscrire | Disclaimer

   EN    FR    IT 

 










Légende :    VFR   VFR Marginal   IFR   IFR Intensif   IFR Très Intensif
Visi : 
Plafond : 
>= 8 km
>= 3000ft
5 à 8 km
1000 à 3000 ft
1500m à 5 km
500 à 1000 ft
800 à 1500m
200 à 500 ft
< 800m
< 200 ft
Symboles :   Orages  Brouillard  Fortes neiges  Fortes précipitations  Vent > 20 kt
SIGMETs :   Divers  Orages  Givrage  Turbulence  Onde Orograph.  Cendres Volcan.






- Altitude de l'aérodrome : 526 ft
- Code IATA : LTN


EGGW - London Luton

DERNIER METAR :
  • 240050Z AUTO 23002KT 1500 BR BKN005 OVC010 06/06 Q1025

METARs EXPIRÉS :
  • 240020Z AUTO 19001KT 2200 BR OVC006 06/06 Q1025
  • 232350Z AUTO 15001KT 3000 BR OVC005 06/06 Q1026
  • 232320Z AUTO 13002KT 3000 BR OVC005 06/06 Q1026
  • 232250Z AUTO VRB02KT 7000 OVC006 06/06 Q1026

TAF AMD TAF EGGW
Valide du 24 à 00h jusqu'au 25 à 00h UTC


240027Z 2400/2424 VRB04KT 2500 BR BKN006
BECMG 2400/2403 BKN003
TEMPO 2400/2411 1200 DZ
PROB40
TEMPO 2400/2411 0300 FG BKN001
BECMG 2411/2414 6000 NSW SCT006 BKN015
TEMPO 2414/2417 4000 BR BKN006
BECMG 2417/2420 3000 BR BKN003
TEMPO 2420/2424 1200 DZ
PROB40
TEMPO 2420/2424 0300 FG BKN001
ATIS : +44 1582 395 204



MET'MAP, la Météo Aéronautique d'un coup d'oeil ! - Copyright ORBIFLY Décembre 2007 - Disclaimer

ORBIFLY MET'MAP TEAM :

Programmation & Développement : Alexandra Zaïnal
Sur une idée originale de : Baudouin d'Aumeries
Assistance à la programmation : Marc-Olivier Méhu
Soutien technique & logistique : Manuel Goepfert

Contact : metmap@orbifly.com




SOURCES & CREDITS :

   NOAA